createdAt,value
2017-12-23T00:01:46.973Z,5.00
2017-12-23T00:04:13.973Z,6.20
2017-12-23T00:06:40.768Z,5.33
2017-12-23T00:09:07.048Z,5.93
2017-12-23T00:11:34.055Z,6.20
2017-12-23T00:14:01.080Z,6.07
2017-12-23T00:16:27.341Z,6.00
2017-12-23T00:18:54.315Z,5.73
2017-12-23T00:21:20.666Z,8.10
2017-12-23T00:23:46.929Z,6.37
2017-12-23T00:26:13.939Z,7.73
2017-12-23T00:28:40.244Z,5.97
2017-12-23T00:31:06.518Z,8.50
2017-12-23T00:33:33.535Z,6.43
2017-12-23T00:35:59.797Z,6.53
2017-12-23T00:38:26.049Z,6.47
2017-12-23T00:40:53.083Z,7.90
2017-12-23T00:43:20.509Z,7.83
2017-12-23T00:45:46.808Z,7.87
2017-12-23T00:48:13.134Z,10.37
2017-12-23T00:50:39.381Z,11.13
2017-12-23T00:53:05.676Z,9.23
2017-12-23T00:55:33.615Z,9.80
2017-12-23T00:57:59.873Z,10.37
2017-12-23T01:00:26.900Z,9.67
2017-12-23T01:02:53.225Z,11.00
2017-12-23T01:05:19.482Z,11.40
2017-12-23T01:07:46.513Z,12.50
2017-12-23T01:10:13.503Z,13.50
2017-12-23T01:12:39.747Z,12.90
2017-12-23T01:15:05.971Z,13.43
2017-12-23T01:17:32.237Z,13.23
2017-12-23T01:19:59.648Z,12.40
2017-12-23T01:22:25.970Z,12.07
2017-12-23T01:24:52.935Z,12.00
2017-12-23T01:27:19.212Z,13.20
2017-12-23T01:29:45.516Z,12.20
2017-12-23T01:32:12.427Z,14.67
2017-12-23T01:34:38.724Z,12.13
2017-12-23T01:37:04.949Z,13.30
2017-12-23T01:39:31.228Z,12.67
2017-12-23T01:41:57.737Z,12.93
2017-12-23T01:44:24.724Z,12.10
2017-12-23T01:46:50.960Z,13.23
2017-12-23T01:49:17.226Z,11.80
2017-12-23T01:51:44.239Z,10.77
2017-12-23T01:54:10.469Z,11.80
2017-12-23T01:56:36.756Z,12.17
2017-12-23T01:59:03.744Z,11.87
2017-12-23T02:01:30.917Z,11.20
2017-12-23T02:03:57.168Z,11.30
2017-12-23T02:06:23.434Z,11.53
2017-12-23T02:08:49.739Z,12.03
2017-12-23T02:11:16.870Z,10.80
2017-12-23T02:13:43.104Z,13.17
2017-12-23T02:16:09.380Z,11.30
2017-12-23T02:18:35.624Z,10.73
2017-12-23T02:21:01.950Z,10.17
2017-12-23T02:23:28.187Z,11.00
2017-12-23T02:25:54.435Z,11.87
2017-12-23T02:28:20.710Z,12.87
2017-12-23T02:30:47.028Z,11.67
2017-12-23T02:33:13.355Z,10.50
2017-12-23T02:35:39.664Z,9.73
2017-12-23T02:38:05.918Z,10.80
2017-12-23T02:40:32.165Z,10.97
2017-12-23T02:42:59.164Z,10.20
2017-12-23T02:45:25.393Z,11.70
2017-12-23T02:47:51.702Z,11.23
2017-12-23T02:50:17.977Z,9.40
2017-12-23T02:52:44.231Z,9.80
2017-12-23T02:55:11.229Z,9.20
2017-12-23T02:57:37.474Z,11.03
2017-12-23T03:00:03.732Z,10.40
2017-12-23T03:02:30.722Z,11.40
2017-12-23T03:04:56.962Z,13.03
2017-12-23T03:07:23.216Z,11.60
2017-12-23T03:09:49.507Z,10.03
2017-12-23T03:12:15.765Z,10.53
2017-12-23T03:14:42.722Z,12.87
2017-12-23T03:17:08.988Z,12.20
2017-12-23T03:19:35.234Z,12.10
2017-12-23T03:22:01.493Z,13.17
2017-12-23T03:24:27.737Z,13.87
2017-12-23T03:26:53.971Z,13.43
2017-12-23T03:29:20.197Z,13.57
2017-12-23T03:31:46.510Z,14.33
2017-12-23T03:34:12.736Z,16.43
2017-12-23T03:36:38.975Z,17.60
2017-12-23T03:39:06.067Z,17.33
2017-12-23T03:41:32.330Z,17.97
2017-12-23T03:43:58.577Z,17.47
2017-12-23T03:46:24.913Z,18.43
2017-12-23T03:48:51.168Z,19.40
2017-12-23T03:51:18.172Z,18.50
2017-12-23T03:53:44.425Z,20.87
2017-12-23T03:56:10.655Z,20.27
2017-12-23T03:58:37.680Z,19.67
2017-12-23T04:01:04.106Z,21.27
2017-12-23T04:03:30.347Z,21.63
2017-12-23T04:05:56.614Z,22.17
2017-12-23T04:08:23.644Z,22.53
2017-12-23T04:10:50.650Z,21.57
2017-12-23T04:13:16.925Z,19.57
2017-12-23T04:15:43.209Z,18.47
2017-12-23T04:18:09.501Z,19.90
2017-12-23T04:20:36.492Z,18.90
2017-12-23T04:23:02.787Z,17.40
2017-12-23T04:25:29.079Z,21.83
2017-12-23T04:27:56.049Z,19.93
2017-12-23T04:30:23.046Z,21.10
2017-12-23T04:32:49.339Z,20.37
2017-12-23T04:35:15.635Z,18.50
2017-12-23T04:37:41.937Z,21.17
2017-12-23T04:40:08.188Z,17.13
2017-12-23T04:42:34.451Z,19.63
2017-12-23T04:45:00.689Z,19.87
2017-12-23T04:47:27.012Z,18.57
2017-12-23T04:49:53.262Z,20.27
2017-12-23T04:52:19.507Z,18.60
2017-12-23T04:54:45.782Z,21.43
2017-12-23T04:57:12.764Z,21.13
2017-12-23T04:59:39.052Z,18.03
2017-12-23T05:02:06.040Z,20.40
2017-12-23T05:04:32.301Z,19.90
2017-12-23T05:06:58.622Z,20.90
2017-12-23T05:09:24.883Z,22.80
2017-12-23T05:11:51.852Z,20.90
2017-12-23T05:14:18.114Z,19.63
2017-12-23T05:16:44.413Z,20.33
2017-12-23T05:19:10.666Z,20.00
2017-12-23T05:21:36.948Z,21.63
2017-12-23T05:24:03.924Z,20.03
2017-12-23T05:26:30.196Z,21.60
2017-12-23T05:28:56.443Z,20.30
2017-12-23T05:31:22.715Z,21.00
2017-12-23T05:33:48.958Z,22.13
2017-12-23T05:36:15.205Z,21.63
2017-12-23T05:38:41.496Z,22.17
2017-12-23T05:41:07.744Z,22.80
2017-12-23T05:43:34.004Z,20.47
2017-12-23T05:46:00.233Z,21.07
2017-12-23T05:48:26.509Z,19.53
2017-12-23T05:50:52.827Z,22.33
2017-12-23T05:53:19.818Z,23.87
2017-12-23T05:55:46.068Z,21.83
2017-12-23T05:58:12.296Z,17.63
2017-12-23T06:00:38.601Z,19.63
2017-12-23T06:03:04.881Z,20.50
2017-12-23T06:05:31.853Z,22.07
2017-12-23T06:07:58.694Z,21.23
2017-12-23T06:10:25.691Z,20.33
2017-12-23T06:12:51.944Z,19.10
2017-12-23T06:15:19.004Z,19.40
2017-12-23T06:17:46.031Z,19.00
2017-12-23T06:20:12.292Z,19.80
2017-12-23T06:22:38.517Z,20.00
2017-12-23T06:25:05.508Z,18.97
2017-12-23T06:27:31.734Z,19.03
2017-12-23T06:29:57.985Z,17.40
2017-12-23T06:32:24.265Z,18.30
2017-12-23T06:34:50.495Z,17.67
2017-12-23T06:37:16.770Z,18.10
2017-12-23T06:39:43.011Z,18.57
2017-12-23T06:42:09.381Z,18.07
2017-12-23T06:44:35.711Z,19.80
2017-12-23T06:47:01.979Z,17.60
2017-12-23T06:49:28.276Z,18.20
2017-12-23T06:51:54.552Z,16.07
2017-12-23T06:54:20.872Z,17.17
2017-12-23T06:56:47.108Z,16.10
2017-12-23T07:05:58.156Z,14.53
2017-12-23T07:08:25.143Z,17.90
2017-12-23T07:10:51.456Z,15.87
2017-12-23T07:13:17.728Z,14.70
2017-12-23T07:15:44.009Z,16.57
2017-12-23T07:18:11.015Z,18.23
2017-12-23T07:20:37.265Z,17.10
2017-12-23T07:23:03.459Z,16.73
2017-12-23T07:25:29.718Z,16.63
2017-12-23T07:27:55.960Z,16.40
2017-12-23T07:30:23.006Z,14.77
2017-12-23T07:32:50.030Z,15.07
2017-12-23T07:35:16.241Z,15.50
2017-12-23T07:37:42.513Z,13.60
2017-12-23T07:40:09.505Z,14.33
2017-12-23T07:42:35.856Z,16.20
2017-12-23T07:45:02.068Z,14.93
2017-12-23T07:47:28.339Z,13.43
2017-12-23T07:49:54.557Z,13.33
2017-12-23T07:52:20.803Z,14.27
2017-12-23T07:54:47.112Z,13.47
2017-12-23T07:57:13.333Z,14.03
2017-12-23T07:59:40.451Z,14.00
2017-12-23T08:02:06.635Z,11.83
2017-12-23T08:04:32.913Z,11.40
2017-12-23T08:06:59.233Z,13.10
2017-12-23T08:09:25.506Z,12.10
2017-12-23T08:11:51.775Z,11.30
2017-12-23T08:14:18.767Z,10.47
2017-12-23T08:16:45.022Z,9.93
2017-12-23T08:19:11.292Z,11.83
2017-12-23T08:21:38.287Z,10.17
2017-12-23T08:24:04.523Z,10.63
2017-12-23T08:26:30.787Z,9.63
2017-12-23T08:28:57.810Z,9.53
2017-12-23T08:31:24.204Z,10.40
2017-12-23T08:33:50.480Z,10.00
2017-12-23T08:36:16.782Z,9.40
2017-12-23T08:38:43.090Z,10.10
2017-12-23T08:41:09.375Z,9.47
2017-12-23T08:43:36.339Z,10.43
2017-12-23T08:46:03.345Z,9.53
2017-12-23T08:48:29.604Z,9.40
2017-12-23T08:50:56.688Z,9.57
2017-12-23T08:53:23.920Z,8.80
2017-12-23T08:55:50.937Z,9.50
2017-12-23T08:58:17.157Z,8.60
2017-12-23T09:00:43.425Z,9.10
2017-12-23T09:03:10.425Z,8.77
2017-12-23T09:05:36.761Z,11.10
2017-12-23T09:08:03.019Z,10.70
2017-12-23T09:10:29.355Z,8.80
2017-12-23T09:12:56.472Z,9.70
2017-12-23T09:15:22.848Z,8.37
2017-12-23T09:17:49.190Z,10.20
2017-12-23T09:20:15.468Z,8.03
2017-12-23T09:22:41.722Z,10.93
2017-12-23T09:25:08.728Z,9.23
2017-12-23T09:27:35.372Z,10.90
2017-12-23T09:30:01.643Z,8.60
2017-12-23T09:32:28.676Z,10.37
2017-12-23T09:34:54.906Z,10.00
2017-12-23T09:37:21.174Z,9.33
2017-12-23T09:39:47.415Z,11.50
2017-12-23T09:42:13.700Z,11.17
2017-12-23T09:44:39.964Z,10.13
2017-12-23T09:47:06.307Z,11.20
2017-12-23T09:49:32.566Z,8.87
2017-12-23T09:51:58.825Z,9.07
2017-12-23T09:54:25.038Z,10.87
2017-12-23T09:56:51.304Z,10.10
2017-12-23T09:59:17.582Z,10.40
2017-12-23T10:01:43.878Z,9.07
2017-12-23T10:04:10.228Z,10.13
2017-12-23T10:06:36.468Z,9.00
2017-12-23T10:09:02.737Z,9.63
2017-12-23T10:11:29.783Z,10.40
2017-12-23T10:13:56.087Z,9.90
2017-12-23T10:16:22.327Z,9.70
2017-12-23T10:18:48.626Z,8.97
2017-12-23T10:21:14.890Z,9.27
2017-12-23T10:23:41.132Z,10.70
2017-12-23T10:26:08.172Z,10.70
2017-12-23T10:28:34.406Z,9.90
2017-12-23T10:31:00.848Z,8.97
2017-12-23T10:33:27.189Z,10.40
2017-12-23T10:35:54.232Z,8.80
2017-12-23T10:38:21.276Z,8.57
2017-12-23T10:40:48.308Z,10.07
2017-12-23T10:43:14.610Z,10.60
2017-12-23T10:45:40.974Z,9.27
2017-12-23T10:48:07.255Z,9.77
2017-12-23T10:50:33.595Z,9.70
2017-12-23T10:52:59.824Z,9.60
2017-12-23T10:55:26.141Z,10.50
2017-12-23T10:57:53.077Z,11.03
2017-12-23T11:00:19.348Z,9.50
2017-12-23T11:02:45.579Z,9.77
2017-12-23T11:05:11.851Z,10.10
2017-12-23T11:07:38.858Z,9.27
2017-12-23T11:10:05.166Z,10.57
2017-12-23T11:12:31.472Z,9.63
2017-12-23T11:14:58.566Z,10.27
2017-12-23T11:17:24.853Z,9.27
2017-12-23T11:19:51.085Z,8.27
2017-12-23T11:22:17.304Z,9.63
2017-12-23T11:24:43.576Z,10.20
2017-12-23T11:27:09.842Z,9.27
2017-12-23T11:29:36.852Z,9.40
2017-12-23T11:32:03.132Z,9.53
2017-12-23T11:34:30.151Z,9.67
2017-12-23T11:36:58.021Z,9.17
2017-12-23T11:39:24.309Z,8.97
2017-12-23T11:41:50.591Z,8.43
2017-12-23T11:44:17.629Z,7.47
2017-12-23T11:46:43.892Z,9.90
2017-12-23T11:49:10.176Z,8.90
2017-12-23T11:51:36.423Z,8.73
2017-12-23T11:54:02.741Z,9.13
2017-12-23T11:56:29.046Z,7.23
2017-12-23T11:58:55.327Z,7.67
2017-12-23T12:01:22.331Z,8.90
2017-12-23T12:03:48.611Z,8.30
2017-12-23T12:06:15.681Z,7.10
2017-12-23T12:08:41.936Z,7.97
2017-12-23T12:11:08.211Z,7.33
2017-12-23T12:13:35.226Z,7.57
2017-12-23T12:16:01.480Z,7.67
2017-12-23T12:18:28.519Z,7.73
2017-12-23T12:20:54.770Z,7.40
2017-12-23T12:23:21.786Z,8.27
2017-12-23T12:25:48.130Z,7.00
2017-12-23T12:28:14.446Z,8.80
2017-12-23T12:30:40.688Z,7.83
2017-12-23T12:33:06.969Z,7.30
2017-12-23T12:35:33.283Z,7.40
2017-12-23T12:37:59.601Z,7.77
2017-12-23T12:40:26.628Z,7.80
2017-12-23T12:42:53.060Z,7.03
2017-12-23T12:45:19.295Z,7.13
2017-12-23T12:47:45.573Z,7.87
2017-12-23T12:50:11.851Z,6.50
2017-12-23T12:52:38.099Z,5.80
2017-12-23T12:55:05.171Z,6.30
2017-12-23T12:57:31.484Z,6.00
2017-12-23T12:59:58.548Z,6.30
2017-12-23T13:02:24.806Z,5.27
2017-12-23T13:04:51.087Z,6.57
2017-12-23T13:07:18.151Z,6.20
2017-12-23T13:09:44.463Z,6.53
2017-12-23T13:12:11.463Z,6.90
2017-12-23T13:14:37.721Z,6.00
2017-12-23T13:17:04.725Z,5.67
2017-12-23T13:19:30.995Z,6.30
2017-12-23T13:21:57.278Z,5.67
2017-12-23T13:24:23.547Z,5.20
2017-12-23T13:26:49.776Z,5.00
2017-12-23T13:29:16.044Z,5.13
2017-12-23T13:31:43.081Z,5.53
2017-12-23T13:34:10.105Z,5.33
2017-12-23T13:36:36.337Z,5.90
2017-12-23T13:39:02.569Z,5.47
2017-12-23T13:41:28.819Z,5.97
2017-12-23T13:43:55.859Z,5.27
2017-12-23T13:46:22.882Z,5.07
2017-12-23T13:48:49.134Z,5.50
2017-12-23T13:51:16.182Z,4.93
2017-12-23T13:53:43.231Z,5.40
2017-12-23T13:56:09.520Z,5.20
2017-12-23T13:58:35.836Z,5.67
2017-12-23T14:01:03.136Z,5.50
2017-12-23T14:03:29.396Z,5.27
2017-12-23T14:05:55.685Z,4.50
2017-12-23T14:08:21.938Z,5.40
2017-12-23T14:10:48.980Z,5.70
2017-12-23T14:13:16.020Z,5.07
2017-12-23T14:15:43.031Z,5.97
2017-12-23T14:18:09.340Z,4.70
2017-12-23T14:20:35.651Z,5.23
2017-12-23T14:23:01.973Z,6.20
2017-12-23T14:25:28.969Z,5.13
2017-12-23T14:27:55.257Z,5.53
2017-12-23T14:30:22.315Z,5.70
2017-12-23T14:32:49.313Z,5.23
2017-12-23T14:35:15.616Z,5.10
2017-12-23T14:37:41.882Z,5.40
2017-12-23T14:40:09.059Z,5.37
2017-12-23T14:42:37.146Z,4.90
2017-12-23T14:45:03.451Z,4.80
2017-12-23T14:47:29.695Z,4.40
2017-12-23T14:49:56.786Z,5.77
2017-12-23T14:52:23.076Z,4.50
2017-12-23T14:54:50.186Z,4.93
2017-12-23T14:57:16.452Z,4.50
2017-12-23T14:59:43.470Z,4.60
2017-12-23T15:02:09.804Z,5.77
2017-12-23T15:04:37.019Z,4.10
2017-12-23T15:07:03.305Z,4.07
2017-12-23T15:09:30.322Z,4.60
2017-12-23T15:11:56.601Z,5.20
2017-12-23T15:14:23.138Z,4.50
2017-12-23T15:16:49.485Z,5.20
2017-12-23T15:19:15.863Z,4.00
2017-12-23T15:21:43.117Z,4.20
2017-12-23T15:24:09.414Z,3.30
2017-12-23T15:26:35.681Z,3.80
2017-12-23T15:29:02.063Z,4.60
2017-12-23T15:31:28.325Z,4.23
2017-12-23T15:33:54.670Z,4.63
2017-12-23T15:36:21.737Z,5.27
2017-12-23T15:38:48.776Z,4.43
2017-12-23T15:41:15.082Z,4.77
2017-12-23T15:43:41.312Z,4.70
2017-12-23T15:46:07.610Z,4.47
2017-12-23T15:48:33.838Z,3.73
2017-12-23T15:51:00.144Z,3.90
2017-12-23T15:53:26.458Z,3.63
2017-12-23T15:55:53.438Z,4.90
2017-12-23T15:58:19.714Z,5.60
2017-12-23T16:00:45.988Z,4.53
2017-12-23T16:03:12.278Z,4.30
2017-12-23T16:05:38.524Z,3.73
2017-12-23T16:08:05.584Z,4.63
2017-12-23T16:10:32.601Z,3.97
2017-12-23T16:12:58.843Z,4.23
2017-12-23T16:15:25.163Z,4.57
2017-12-23T16:17:51.405Z,5.43
2017-12-23T16:20:17.673Z,4.70
2017-12-23T16:22:43.953Z,4.40
2017-12-23T16:25:10.283Z,4.10
2017-12-23T16:27:36.519Z,3.80
2017-12-23T16:30:02.785Z,4.00
2017-12-23T16:32:29.143Z,4.33
2017-12-23T16:34:55.462Z,3.83
2017-12-23T16:37:21.739Z,4.20
2017-12-23T16:39:48.046Z,4.10
2017-12-23T16:42:14.310Z,4.00
2017-12-23T16:44:40.658Z,4.60
2017-12-23T16:47:07.685Z,4.83
2017-12-23T16:49:33.975Z,4.20
2017-12-23T16:52:00.258Z,4.67
2017-12-23T16:54:27.279Z,4.43
2017-12-23T16:56:53.568Z,4.20
2017-12-23T16:59:19.872Z,5.77
2017-12-23T17:01:46.204Z,5.10
2017-12-23T17:04:13.212Z,5.50
2017-12-23T17:06:39.516Z,4.83
2017-12-23T17:09:05.822Z,3.93
2017-12-23T17:11:32.102Z,4.17
2017-12-23T17:13:58.424Z,4.30
2017-12-23T17:16:24.678Z,5.47
2017-12-23T17:18:50.936Z,4.93
2017-12-23T17:21:18.014Z,6.00
2017-12-23T17:23:45.181Z,4.80
2017-12-23T17:26:11.429Z,5.37
2017-12-23T17:28:56.511Z,4.53
2017-12-23T17:31:22.798Z,4.80
2017-12-23T17:33:49.098Z,5.40
2017-12-23T17:36:16.142Z,4.63
2017-12-23T17:38:43.162Z,4.80
2017-12-23T17:41:09.448Z,5.00
2017-12-23T17:43:35.701Z,5.03
2017-12-23T17:46:01.985Z,5.57
2017-12-23T17:48:28.993Z,5.13
2017-12-23T17:50:55.255Z,5.60
2017-12-23T17:53:22.273Z,5.57
2017-12-23T17:55:48.499Z,6.20
2017-12-23T17:58:14.760Z,5.70
2017-12-23T18:00:41.773Z,5.80
2017-12-23T18:03:08.047Z,5.13
2017-12-23T18:05:34.315Z,6.00
2017-12-23T18:08:00.609Z,6.10
2017-12-23T18:10:26.896Z,5.70
2017-12-23T18:12:53.139Z,6.20
2017-12-23T18:15:20.233Z,4.67
2017-12-23T18:17:46.522Z,5.37
2017-12-23T18:20:12.822Z,6.10
2017-12-23T18:22:40.071Z,6.57
2017-12-23T18:25:06.388Z,4.80
2017-12-23T18:27:32.632Z,5.30
2017-12-23T18:29:58.934Z,5.90
2017-12-23T18:32:25.188Z,5.90
2017-12-23T18:34:51.462Z,4.80
2017-12-23T18:37:18.511Z,5.80
2017-12-23T18:39:45.500Z,6.33
2017-12-23T18:42:11.790Z,7.33
2017-12-23T18:44:39.177Z,6.77
2017-12-23T18:47:05.468Z,5.73
2017-12-23T18:49:31.726Z,6.57
2017-12-23T18:51:58.003Z,5.53
2017-12-23T18:54:24.384Z,5.90
2017-12-23T18:56:50.641Z,6.13
2017-12-23T18:59:16.973Z,5.20
2017-12-23T19:01:43.247Z,6.10
2017-12-23T19:04:09.561Z,6.67
2017-12-23T19:06:35.843Z,6.37
2017-12-23T19:09:02.192Z,6.23
2017-12-23T19:11:28.473Z,6.60
2017-12-23T19:13:54.723Z,5.67
2017-12-23T19:16:40.610Z,6.10
2017-12-23T19:19:07.622Z,5.90
2017-12-23T19:21:33.882Z,6.23
2017-12-23T19:24:00.907Z,5.60
2017-12-23T19:26:27.157Z,5.23
2017-12-23T19:28:54.213Z,5.37
2017-12-23T19:31:20.447Z,6.17
2017-12-23T19:33:46.783Z,5.93
2017-12-23T19:36:13.061Z,5.57
2017-12-23T19:38:39.341Z,4.83
2017-12-23T19:41:05.743Z,5.50
2017-12-23T19:43:32.018Z,5.60
2017-12-23T19:45:58.279Z,5.27
2017-12-23T19:48:24.534Z,6.93
2017-12-23T19:50:50.864Z,3.90
2017-12-23T19:53:17.166Z,5.20
2017-12-23T19:55:43.449Z,5.33
2017-12-23T19:58:10.428Z,6.10
2017-12-23T20:00:36.725Z,5.13
2017-12-23T20:03:03.010Z,5.20
2017-12-23T20:05:29.274Z,4.93
2017-12-23T20:07:56.368Z,5.30
2017-12-23T20:10:22.690Z,6.50
2017-12-23T20:12:48.942Z,6.23
2017-12-23T20:15:15.248Z,5.73
2017-12-23T20:17:41.536Z,5.33
2017-12-23T20:20:08.537Z,5.70
2017-12-23T20:22:34.853Z,5.00
2017-12-23T20:25:01.160Z,4.57
2017-12-23T20:27:27.436Z,5.80
2017-12-23T20:29:53.707Z,5.40
2017-12-23T20:32:20.725Z,5.40
2017-12-23T20:34:47.063Z,6.10
2017-12-23T20:37:13.297Z,4.97
2017-12-23T20:39:39.591Z,5.80
2017-12-23T20:42:05.870Z,5.70
2017-12-23T20:44:32.141Z,5.57
2017-12-23T20:46:58.423Z,5.30
2017-12-23T20:49:24.812Z,4.77
2017-12-23T20:51:51.109Z,5.37
2017-12-23T20:54:18.164Z,4.90
2017-12-23T20:56:44.428Z,5.13
2017-12-23T20:59:10.683Z,5.30
2017-12-23T21:01:37.062Z,6.50
2017-12-23T21:04:03.354Z,5.60
2017-12-23T21:06:29.586Z,5.00
2017-12-23T21:08:55.846Z,5.73
2017-12-23T21:11:22.136Z,5.33
2017-12-23T21:13:48.426Z,6.13
2017-12-23T21:16:14.768Z,4.40
2017-12-23T21:18:41.052Z,4.67
2017-12-23T21:21:08.040Z,6.00
2017-12-23T21:23:34.328Z,5.80
2017-12-23T21:26:01.394Z,5.07
2017-12-23T21:28:27.732Z,4.63
2017-12-23T21:30:53.988Z,5.97
2017-12-23T21:33:20.305Z,5.33
2017-12-23T21:35:46.990Z,5.33
2017-12-23T21:38:13.248Z,4.97
2017-12-23T21:40:40.290Z,5.40
2017-12-23T21:43:07.357Z,5.27
2017-12-23T21:45:33.655Z,6.63
2017-12-23T21:47:59.883Z,6.23
2017-12-23T21:50:26.141Z,6.07
2017-12-23T21:52:52.362Z,6.67
2017-12-23T21:55:19.417Z,5.20
2017-12-23T21:57:45.710Z,4.93
2017-12-23T22:00:12.808Z,4.87
2017-12-23T22:02:39.135Z,5.80
2017-12-23T22:05:05.432Z,5.87
2017-12-23T22:07:31.801Z,4.60
2017-12-23T22:09:58.076Z,5.10
2017-12-23T22:12:24.354Z,5.53
2017-12-23T22:14:50.656Z,4.87
2017-12-23T22:17:17.002Z,5.50
2017-12-23T22:19:44.152Z,5.70
2017-12-23T22:22:11.233Z,5.50
2017-12-23T22:24:37.688Z,5.93
2017-12-23T22:27:03.947Z,5.00
2017-12-23T22:29:30.241Z,4.90
2017-12-23T22:31:56.555Z,4.60
2017-12-23T22:34:22.849Z,6.97
2017-12-23T22:36:49.888Z,5.53
2017-12-23T22:39:16.167Z,5.37
2017-12-23T22:41:42.439Z,4.77
2017-12-23T22:44:08.761Z,4.50
2017-12-23T22:46:35.021Z,4.80
2017-12-23T22:49:02.052Z,4.43
2017-12-23T22:51:28.378Z,5.60
2017-12-23T22:53:55.397Z,4.90
2017-12-23T22:56:21.674Z,4.83
2017-12-23T22:58:48.675Z,5.00
2017-12-23T23:01:14.944Z,4.93
2017-12-23T23:03:41.976Z,4.83
2017-12-23T23:06:08.207Z,4.50
2017-12-23T23:08:34.448Z,5.20
2017-12-23T23:11:00.709Z,4.77
2017-12-23T23:13:26.965Z,4.30
2017-12-23T23:15:53.288Z,5.77
2017-12-23T23:18:19.537Z,5.07
2017-12-23T23:20:45.796Z,4.47
2017-12-23T23:23:12.045Z,4.47
2017-12-23T23:25:39.019Z,5.20
2017-12-23T23:28:05.320Z,4.43
2017-12-23T23:30:32.294Z,6.00
2017-12-23T23:32:58.550Z,5.00
2017-12-23T23:35:24.854Z,4.10
2017-12-23T23:37:51.110Z,5.10
2017-12-23T23:40:17.405Z,5.50
2017-12-23T23:42:43.688Z,4.60
2017-12-23T23:45:09.909Z,3.77
2017-12-23T23:47:36.179Z,5.67
2017-12-23T23:50:02.406Z,4.90
2017-12-23T23:52:28.673Z,4.30
2017-12-23T23:54:54.971Z,5.80
2017-12-23T23:57:21.259Z,4.93
2017-12-23T23:59:47.531Z,4.80
